• Join FlightAware (Why Join?)
  • Login
  • US Flag 
08:23AM EDT


 

Airport Tracker/Info


-or-


 

Live Flight TrackerFlight Track Log ✈ N85JE ✈ 15-Jul-2014 ✈ KAPF - KBED

Flight Track Log - Related Links

Times and Time Zones

All times are in EDT time to prevent confusion due to time zone crossing. See the N85JE flight status page for this flight to view local times or setup timezone preferences in your user account.

Time Position Orientation Groundspeed Altitude Reporting Facility
EDT Latitude Longitude Course Direction KTS MPH feet Rate Location/Type
09:25AM 26.3101 -81.6542 22° Northeast 242 278 10,700  Level FlightAware ADS-B (KEYW)
09:26AM 26.3626 -81.6292 16° North 240 276 13,500 3,240 Climbing FlightAware ADS-B (KEYW)
09:26AM 26.3737 -81.6284 358° North 237 273 14,000 3,060 Climbing FlightAware ADS-B (KEYW)
09:27AM 26.4285 -81.6340 355° North 233 268 16,600 2,940 Climbing FlightAware ADS-B (KEYW)
09:28AM 26.4613 -81.6368 358° North 232 267 18,000 2,400 Climbing FlightAware ADS-B (KEYW)
09:28AM 26.4946 -81.6377 North 242 278 19,100 1,980 Climbing FlightAware ADS-B (KEYW)
09:29AM 26.5301 -81.6363 North 264 304 20,000 1,800 Climbing FlightAware ADS-B (KEYW)
09:29AM 26.5679 -81.6301 North 280 322 20,900 1,800 Climbing FlightAware ADS-B (KEYW)
09:30AM 26.6052 -81.6236 12° North 286 329 21,800 1,860 Climbing FlightAware ADS-B (KEYW)
09:30AM 26.6469 -81.6126 12° North 294 338 22,800 2,100 Climbing FlightAware ADS-B (KEYW)
09:30AM 26.6603 -81.6113 359° North 290 334 23,200 2,220 Climbing FlightAware ADS-B (KEYW)
09:31AM 26.6864 -81.6182 340° North 288 331 23,900 2,040 Climbing FlightAware ADS-B (KEYW)
09:31AM 26.7252 -81.6315 345° North 291 335 24,900 1,860 Climbing FlightAware ADS-B (KEYW)
09:31AM 26.7341 -81.6343 345° North 294 338 25,100 1,500 Climbing FlightAware ADS-B (KMCO)
09:32AM 26.7653 -81.6442 344° North 299 344 25,700 1,680 Climbing FlightAware ADS-B (KEYW)
09:32AM 26.8055 -81.6579 343° North 306 352 26,600 1,800 Climbing FlightAware ADS-B (KEYW)
09:33AM 26.8473 -81.6716 349° North 311 358 27,500 1,800 Climbing FlightAware ADS-B (KEYW)
09:33AM 26.8903 -81.6722 North 317 365 28,400 1,800 Climbing FlightAware ADS-B (KEYW)
09:33AM 26.8933 -81.6719 North 318 366 28,500 1,800 Climbing FlightAware ADS-B (KMCO)
09:34AM 26.9523 -81.6694 North 321 369 29,700 1,800 Climbing FlightAware ADS-B (KMCO)
09:34AM 26.9575 -81.6692 North 321 369 29,800 1,800 Climbing FlightAware ADS-B (KEYW)
09:34AM 27.0020 -81.6674 North 323 372 30,700 1,740 Climbing FlightAware ADS-B (KEYW)
09:35AM 27.0102 -81.6671 North 326 375 30,900 660 Climbing FlightAware ADS-B (KMCO)
09:35AM 27.0386 -81.6659 North 329 379 31,000 120 Climbing FlightAware ADS-B (KEYW)
09:35AM 27.0536 -81.6653 North 360 414 31,000  Level FlightAware ADS-B (KMCO)
09:35AM 27.0998 -81.6633 North 373 429 31,000  Level FlightAware ADS-B (KEYW)
09:36AM 27.1450 -81.6612 North 394 453 31,000 180 Level FlightAware ADS-B (KMCO)
09:36AM 27.1501 -81.6610 North 395 455 31,100 1,440 Climbing FlightAware ADS-B (KEYW)
09:36AM 27.2087 -81.6583 North 393 452 31,800 1,500 Climbing FlightAware ADS-B (KEYW)
09:37AM 27.2194 -81.6577 North 393 452 32,000 1,560 Climbing FlightAware ADS-B (KMCO)
09:37AM 27.2629 -81.6556 North 392 451 32,600 1,380 Climbing FlightAware ADS-B (KEYW)
09:37AM 27.2946 -81.6541 North 391 450 33,000 1,380 Climbing FlightAware ADS-B (KMCO)
09:37AM 27.3182 -81.6530 North 390 449 33,300 1,560 Climbing FlightAware ADS-B (KEYW)
09:38AM 27.3635 -81.6509 North 389 448 34,000 1,380 Climbing FlightAware ADS-B (KMCO)
09:38AM 27.3722 -81.6504 North 388 447 34,000 1,380 Level FlightAware ADS-B (KEYW)
09:38AM 27.4261 -81.6480 North 386 444 34,800 1,560 Climbing FlightAware ADS-B (KEYW)
09:39AM 27.4379 -81.6474 North 386 444 35,000 1,320 Climbing FlightAware ADS-B (KMCO)
09:39AM 27.4772 -81.6457 North 384 442 35,500 1,380 Climbing FlightAware ADS-B (KEYW)
09:39AM 27.5084 -81.6442 North 382 440 35,900 1,560 Climbing FlightAware ADS-B (KMCO)
09:39AM 27.5327 -81.6431 North 380 437 36,300 1,500 Climbing FlightAware ADS-B (KEYW)
09:40AM 27.5819 -81.6409 North 376 433 37,000 1,500 Climbing FlightAware ADS-B (KMCO)
09:40AM 27.6385 -81.6382 North 373 429 37,800 1,500 Climbing FlightAware ADS-B (KEYW)
09:41AM 27.6359 -81.6384 North 372 428 38,000 1,380 Climbing FlightAware ADS-B (KMCO)
09:41AM 27.6910 -81.6357 North 370 426 38,500 1,500 Climbing FlightAware ADS-B (KEYW)
09:41AM 27.7423 -81.6334 North 365 420 39,300 1,500 Climbing FlightAware ADS-B (KEYW)
09:42AM 27.7536 -81.6328 North 364 419 39,500 1,320 Climbing FlightAware ADS-B (KMCO)
09:42AM 27.7933 -81.6310 North 358 412 40,000 1,500 Climbing FlightAware ADS-B (KEYW)
09:42AM 27.8073 -81.6303 North 354 407 40,500 1,500 Climbing FlightAware ADS-B (KMCO)
09:42AM 27.8382 -81.6288 North 352 405 40,700 1,020 Climbing FlightAware ADS-B (KEYW)
09:43AM 27.8681 -81.6274 North 352 405 41,200 960 Climbing FlightAware ADS-B (KMCO)
09:43AM 27.8882 -81.6265 North 352 405 41,200 900 Level FlightAware ADS-B (KEYW)
09:43AM 27.9403 -81.6241 North 351 404 41,700 1,020 Climbing FlightAware ADS-B (KEYW)
09:44AM 27.9444 -81.6239 North 350 403 41,900 960 Climbing FlightAware ADS-B (KMCO)
09:44AM 27.9904 -81.6218 North 348 400 42,200 900 Climbing FlightAware ADS-B (KEYW)
09:44AM 28.0179 -81.6206 North 346 398 42,500 960 Climbing FlightAware ADS-B (KMCO)
09:44AM 28.0379 -81.6196 North 345 397 42,700 900 Climbing FlightAware ADS-B (KEYW)
09:45AM 28.0790 -81.6177 North 344 396 43,100 780 Climbing FlightAware ADS-B (KMCO)
09:45AM 28.1322 -81.6152 North 346 398 43,500 720 Climbing FlightAware ADS-B (KEYW)
09:46AM 28.1458 -81.6146 North 346 398 43,600 720 Climbing FlightAware ADS-B (KMCO)
09:46AM 28.1823 -81.6129 North 346 398 43,900 720 Climbing FlightAware ADS-B (KEYW)
09:46AM 28.2069 -81.6118 North 347 399 44,100 660 Climbing FlightAware ADS-B (KMCO)
09:46AM 28.2244 -81.6110 North 347 399 44,200 540 Climbing FlightAware ADS-B (KEYW)
09:47AM 28.2775 -81.6085 North 344 396 44,500 660 Climbing FlightAware ADS-B (KMCO)
09:48AM 28.3375 -81.6056 North 343 395 45,000 720 Climbing FlightAware ADS-B (KMCO)
09:48AM 28.3391 -81.6056 North 343 395 45,000  Level FlightAware ADS-B (KEYW)
09:48AM 28.4071 -81.6023 North 354 407 45,000  Level FlightAware ADS-B (KMCO)
09:49AM 28.4742 -81.5992 North 366 421 45,000  Level FlightAware ADS-B (KMCO)
09:50AM 28.5517 -81.5956 North 374 430 45,000  Level FlightAware ADS-B (KMCO)
09:50AM 28.6236 -81.5922 North 378 435 45,000  Level FlightAware ADS-B (KMCO)
09:51AM 28.6958 -81.5888 North 381 438 45,000  Level FlightAware ADS-B (KMCO)
09:52AM 28.7306 -81.5871 North 380 437 45,000  Level FlightAware ADS-B (KSFB)
09:52AM 28.8391 -81.5820 North 385 443 45,000  Level FlightAware ADS-B (KSFB)
09:53AM 28.9093 -81.5786 North 388 447 45,000  Level FlightAware ADS-B (KMCO)
09:54AM 28.9811 -81.5752 North 390 449 45,000  Level FlightAware ADS-B (KMCO)
09:55AM 29.0876 -81.5692 North 394 453 45,000  Level FlightAware ADS-B (KMCO)
09:56AM 29.1943 -81.5307 19° North 396 456 45,000  Level FlightAware ADS-B (KMCO)
09:57AM 29.2990 -81.4907 19° North 398 458 45,000  Level FlightAware ADS-B (KMCO)
09:57AM 29.3679 -81.4640 19° North 398 458 45,000  Level FlightAware ADS-B (KMCO)
09:58AM 29.4347 -81.4379 19° North 398 458 45,000  Level FlightAware ADS-B (KMCO)
09:59AM 29.5457 -81.3947 19° North 399 459 45,000  Level FlightAware ADS-B (KMCO)
10:00AM 29.6089 -81.3700 19° North 399 459 45,000  Level FlightAware ADS-B (KMCO)
10:01AM 29.7468 -81.3160 19° North 401 461 45,000  Level FlightAware ADS-B (KMCO)
10:03AM 29.9640 -81.2306 19° North 403 464 45,000  Level FlightAware ADS-B (KMCO)
10:04AM 30.0360 -81.2022 19° North 403 464 45,000  Level FlightAware ADS-B (KMCO)
10:05AM 30.1223 -81.1681 19° North 402 463 45,000  Level FlightAware ADS-B (KMCO)
10:05AM 30.1819 -81.1461 19° North 401 461 45,000  Level Miami Center
10:06AM 30.2936 -81.1003 20° North 403 464 45,000  Level Jacksonville Center
10:07AM 30.3892 -81.0625 19° North 408 470 45,000  Level Jacksonville Center
10:08AM 30.4950 -81.0219 18° North 398 458 45,000  Level Jacksonville Center
10:09AM 30.6008 -80.9786 19° North 398 458 45,000  Level Jacksonville Center
10:10AM 30.7086 -80.9356 19° North 404 465 45,000  Level Jacksonville Center
10:11AM 30.8144 -80.8922 19° North 404 465 45,000  Level Jacksonville Center
10:12AM 30.9203 -80.8489 19° North 404 465 45,000  Level Jacksonville Center
10:13AM 31.0283 -80.8053 19° North 404 465 45,000  Level Jacksonville Center
10:14AM 31.1361 -80.7664 17° North 399 459 45,000  Level Jacksonville Center
10:15AM 31.2375 -80.7181 22° Northeast 399 459 45,000  Level Jacksonville Center
10:16AM 31.3433 -80.6767 18° North 399 459 45,000  Level Jacksonville Center
10:17AM 31.4469 -80.6303 21° North 399 459 45,000  Level Jacksonville Center
10:18AM 31.5589 -80.5933 16° North 399 459 45,000  Level Jacksonville Center
10:19AM 31.6731 -80.5467 19° North 399 459 45,000  Level Jacksonville Center
10:20AM 31.7683 -80.5075 19° North 405 466 45,000  Level Jacksonville Center
10:21AM 31.8739 -80.4633 20° North 400 460 45,000  Level Jacksonville Center
10:22AM 31.9919 -80.4136 20° North 407 468 45,000  Level Jacksonville Center
10:23AM 32.0997 -80.3692 19° North 405 466 45,000  Level Jacksonville Center
10:24AM 32.2053 -80.3269 19° North 405 466 45,000  Level Jacksonville Center
10:25AM 32.3150 -80.2819 19° North 405 466 45,000  Level Jacksonville Center
10:26AM 32.4206 -80.2372 20° North 405 466 45,000  Level Jacksonville Center
10:27AM 32.5281 -80.1922 19° North 405 466 45,000  Level Jacksonville Center
10:28AM 32.6336 -80.1469 20° North 405 466 45,000  Level Jacksonville Center
10:29AM 32.7411 -80.1017 20° North 405 466 45,000  Level Jacksonville Center
10:30AM 32.8383 -80.0592 20° North 405 466 45,000  Level Jacksonville Center
10:31AM 32.9411 -79.9942 28° Northeast 405 466 45,000  Level Jacksonville Center
10:32AM 33.0419 -79.9239 30° Northeast 410 472 45,000  Level Jacksonville Center
10:33AM 33.1406 -79.8561 30° Northeast 410 472 45,000  Level Jacksonville Center
10:34AM 33.2408 -79.7833 31° Northeast 410 472 45,000  Level Jacksonville Center
10:35AM 33.3394 -79.7128 31° Northeast 410 472 45,000  Level Jacksonville Center
10:36AM 33.4378 -79.6419 31° Northeast 410 472 45,000  Level Jacksonville Center
10:37AM 33.5339 -79.5686 32° Northeast 410 472 45,000  Level Jacksonville Center
10:38AM 33.6322 -79.4975 31° Northeast 410 472 45,000  Level Jacksonville Center
10:39AM 33.7325 -79.4239 31° Northeast 410 472 45,000  Level Jacksonville Center
10:40AM 33.8306 -79.3500 32° Northeast 415 478 45,000  Level Jacksonville Center
10:41AM 33.9308 -79.2783 31° Northeast 415 478 45,000  Level Jacksonville Center
10:43AM 34.1258 -79.1267 33° Northeast 420 483 45,000  Level Washington Center
10:44AM 34.2219 -79.0503 33° Northeast 420 483 45,000  Level Washington Center
10:45AM 34.3328 -78.9719 30° Northeast 420 483 45,000  Level Washington Center
10:46AM 34.4328 -78.8981 31° Northeast 420 483 45,000  Level Washington Center
10:47AM 34.5244 -78.8286 32° Northeast 420 483 45,000  Level Washington Center
10:48AM 34.6183 -78.7542 33° Northeast 415 478 45,000  Level Washington Center
10:54AM 35.2058 -78.3072 33° Northeast 430 495 45,000  Level FlightAware ADS-B
10:55AM 35.3091 -78.2272 33° Northeast 430 495 45,000  Level FlightAware ADS-B
10:56AM 35.3844 -78.1686 32° Northeast 433 498 45,000  Level FlightAware ADS-B
10:56AM 35.4516 -78.1163 33° Northeast 433 498 45,000  Level FlightAware ADS-B
10:57AM 35.5137 -78.0678 33° Northeast 433 498 45,000  Level FlightAware ADS-B
10:58AM 35.6012 -77.9994 33° Northeast 432 497 45,000  Level FlightAware ADS-B
10:59AM 35.6799 -77.9376 33° Northeast 430 495 45,000  Level FlightAware ADS-B
10:59AM 35.7312 -77.8973 33° Northeast 431 496 45,000  Level FlightAware ADS-B
11:00AM 35.8152 -77.8313 33° Northeast 432 497 45,000  Level FlightAware ADS-B
11:01AM 35.9273 -77.7428 33° Northeast 433 498 45,000  Level FlightAware ADS-B
11:02AM 35.9675 -77.7110 33° Northeast 432 497 45,000  Level FlightAware ADS-B
11:02AM 36.0310 -77.6559 38° Northeast 430 495 45,000  Level FlightAware ADS-B
11:03AM 36.0992 -77.5907 38° Northeast 431 496 45,000  Level FlightAware ADS-B (KWWD)
11:03AM 36.1498 -77.5430 37° Northeast 432 497 45,000  Level FlightAware ADS-B
11:04AM 36.2144 -77.4827 37° Northeast 431 496 45,000  Level FlightAware ADS-B
11:05AM 36.2265 -77.4714 37° Northeast 429 494 45,000  Level FlightAware ADS-B
11:07AM 36.4410 -77.2712 32° Northeast 436 502 45,000  Level FlightAware ADS-B
11:07AM 36.5313 -77.2013 33° Northeast 438 504 45,000  Level FlightAware ADS-B
11:08AM 36.6143 -77.1360 32° Northeast 439 505 45,000  Level FlightAware ADS-B
11:09AM 36.6611 -77.0993 32° Northeast 440 506 45,000  Level FlightAware ADS-B
11:09AM 36.7144 -77.0575 32° Northeast 441 507 45,000  Level FlightAware ADS-B
11:10AM 36.7933 -76.9955 33° Northeast 437 503 45,000  Level FlightAware ADS-B (KWWD)
11:10AM 36.8458 -76.9541 33° Northeast 437 503 45,000  Level FlightAware ADS-B (KWWD)
11:11AM 36.9200 -76.8955 32° Northeast 446 513 45,000  Level FlightAware ADS-B
11:12AM 37.0082 -76.8256 32° Northeast 446 513 45,000  Level FlightAware ADS-B
11:13AM 37.0744 -76.7731 32° Northeast 446 513 45,000  Level FlightAware ADS-B
11:13AM 37.1350 -76.7249 32° Northeast 446 513 45,000  Level FlightAware ADS-B
11:13AM 37.1609 -76.7043 32° Northeast 444 511 45,000  Level FlightAware ADS-B (KDCA)
11:14AM 37.2101 -76.6650 33° Northeast 443 510 45,000  Level FlightAware ADS-B
11:14AM 37.2705 -76.6168 32° Northeast 442 509 45,000  Level FlightAware ADS-B (KDCA)
11:15AM 37.3333 -76.5666 33° Northeast 443 510 45,000  Level FlightAware ADS-B (KWWD)
11:15AM 37.3426 -76.5591 33° Northeast 442 509 45,000  Level FlightAware ADS-B
11:16AM 37.3988 -76.5139 33° Northeast 441 507 45,000  Level FlightAware ADS-B (KWWD)
11:16AM 37.4700 -76.4568 33° Northeast 442 509 45,000  Level FlightAware ADS-B (KWWD)
11:17AM 37.5232 -76.4139 33° Northeast 442 509 45,000  Level FlightAware ADS-B (KWWD)
11:17AM 37.5831 -76.3657 32° Northeast 440 506 45,000  Level FlightAware ADS-B (KDCA)
11:18AM 37.6768 -76.2898 33° Northeast 441 507 45,000  Level FlightAware ADS-B (KWWD)
11:19AM 37.7429 -76.2363 33° Northeast 440 506 45,000  Level FlightAware ADS-B (KWWD)
11:19AM 37.7868 -76.2006 33° Northeast 441 507 45,000  Level FlightAware ADS-B (KWWD)
11:20AM 37.8477 -76.1511 33° Northeast 441 507 45,000  Level FlightAware ADS-B (KWWD)
11:21AM 37.9176 -76.0941 33° Northeast 443 510 45,000  Level FlightAware ADS-B (KWWD)
11:21AM 37.9703 -76.0510 33° Northeast 443 510 45,000  Level FlightAware ADS-B (KWWD)
11:21AM 37.9778 -76.0450 32° Northeast 444 511 45,000  Level FlightAware ADS-B (KDCA)
11:22AM 38.0791 -75.9619 34° Northeast 440 506 45,000  Level FlightAware ADS-B (KWWD)
11:23AM 38.1255 -75.9238 33° Northeast 447 514 45,000  Level FlightAware ADS-B (KSBY)
11:23AM 38.1413 -75.9109 33° Northeast 447 514 45,000  Level FlightAware ADS-B (KSBY)
11:24AM 38.2293 -75.8384 33° Northeast 447 514 45,000  Level FlightAware ADS-B (KSBY)
11:24AM 38.3006 -75.7896 28° Northeast 439 505 45,000  Level FlightAware ADS-B (KWWD)
11:25AM 38.3541 -75.7477 34° Northeast 447 514 45,000  Level FlightAware ADS-B (KWWD)
11:25AM 38.4011 -75.7083 33° Northeast 447 514 45,000  Level FlightAware ADS-B (KSBY)
11:26AM 38.4759 -75.6462 33° Northeast 447 514 45,000  Level FlightAware ADS-B (KWWD)
11:27AM 38.5291 -75.6018 33° Northeast 448 516 45,000  Level FlightAware ADS-B (KSBY)
11:27AM 38.5836 -75.5561 33° Northeast 449 517 45,000  Level FlightAware ADS-B (KSBY)
11:28AM 38.6506 -75.4998 33° Northeast 450 518 45,000  Level FlightAware ADS-B (KSBY)
11:28AM 38.7080 -75.4515 34° Northeast 444 511 45,000  Level FlightAware ADS-B (KWWD)
11:29AM 38.7941 -75.3787 34° Northeast 443 510 45,000  Level FlightAware ADS-B (KWWD)
11:30AM 38.8500 -75.3313 34° Northeast 450 518 45,000  Level FlightAware ADS-B (KAPG)
11:30AM 38.9135 -75.2769 34° Northeast 451 519 45,000  Level FlightAware ADS-B (KWWD)
11:31AM 38.9915 -75.1965 40° Northeast 442 509 45,000 -120 Level FlightAware ADS-B (KWWD)
11:32AM 39.0558 -75.1298 39° Northeast 450 518 44,900 -120 Descending FlightAware ADS-B (KWWD)
11:32AM 39.0685 -75.1168 33° Northeast 450 518 44,900 -1,020 Level FlightAware ADS-B (KSBY)
11:32AM 39.1316 -75.0524 39° Northeast 453 521 44,100 -1,500 Descending FlightAware ADS-B (KPHL)
11:33AM 39.2236 -74.9584 39° Northeast 454 522 42,700 -1,620 Descending FlightAware ADS-B (KWWD)
11:34AM 39.2728 -74.9079 39° Northeast 457 526 41,900 -1,620 Descending FlightAware ADS-B (KWWD)
11:35AM 39.3386 -74.8405 39° Northeast 466 536 40,900 -1,500 Descending FlightAware ADS-B (KPHL)
11:35AM 39.3962 -74.7811 39° Northeast 457 526 40,100 -1,440 Descending FlightAware ADS-B (KWWD)
11:36AM 39.4530 -74.7225 39° Northeast 458 527 39,300 -1,620 Descending FlightAware ADS-B (KWWD)
11:36AM 39.5054 -74.6684 39° Northeast 470 541 38,300 -1,920 Descending FlightAware ADS-B (KWWD)
11:37AM 39.5748 -74.5966 39° Northeast 474 545 37,000 -2,040 Descending FlightAware ADS-B (KWWD)
11:38AM 39.6224 -74.5471 39° Northeast 475 547 35,700 -2,340 Descending FlightAware ADS-B (KPHL)
11:38AM 39.7151 -74.4505 39° Northeast 478 550 33,900 -1,980 Descending FlightAware ADS-B (KWWD)
11:39AM 39.7856 -74.3769 40° Northeast 479 551 33,000 -720 Descending FlightAware ADS-B (KWWD)
11:39AM 39.8488 -74.3107 39° Northeast 478 550 33,000  Level FlightAware ADS-B (KPHL)
11:40AM 39.9137 -74.2426 39° Northeast 475 547 33,000  Level FlightAware ADS-B (KWWD)
11:41AM 39.9765 -74.1765 39° Northeast 474 545 33,000  Level FlightAware ADS-B (KWWD)
11:41AM 40.0273 -74.1229 39° Northeast 474 545 33,000  Level FlightAware ADS-B (KWWD)
11:42AM 40.0885 -74.0583 39° Northeast 474 545 33,000  Level FlightAware ADS-B (KSNC)
11:42AM 40.1416 -74.0020 39° Northeast 474 545 33,000  Level FlightAware ADS-B (KSNC)
11:43AM 40.1939 -73.9465 39° Northeast 473 544 33,000 -120 Level FlightAware ADS-B (KWWD)
11:43AM 40.2474 -73.8896 39° Northeast 474 545 32,900 -1,080 Descending FlightAware ADS-B (KWWD)
11:44AM 40.2991 -73.8344 39° Northeast 475 547 31,900 -2,400 Descending FlightAware ADS-B (KWWD)
11:44AM 40.3512 -73.7789 40° Northeast 478 550 30,500 -2,400 Descending FlightAware ADS-B (KWWD)
11:45AM 40.4006 -73.7261 39° Northeast 485 558 29,500 -2,220 Descending FlightAware ADS-B (KSNC)
11:45AM 40.4318 -73.6927 40° Northeast 480 552 28,800 -1,920 Descending FlightAware ADS-B (KWWD)
11:46AM 40.4910 -73.6290 39° Northeast 478 550 27,900 -1,740 Descending FlightAware ADS-B (KSNC)
11:46AM 40.5567 -73.5582 40° Northeast 466 536 26,700 -1,920 Descending FlightAware ADS-B (KWWD)
11:46AM 40.5668 -73.5472 40° Northeast 463 533 26,500 -1,800 Descending FlightAware ADS-B (KWWD)
11:47AM 40.6258 -73.4836 40° Northeast 464 534 25,500 -1,800 Descending FlightAware ADS-B (KWWD)
11:48AM 40.6760 -73.4292 40° Northeast 458 527 24,600 -2,160 Descending FlightAware ADS-B (KPHL)
11:48AM 40.7277 -73.3731 40° Northeast 445 512 23,300 -1,500 Descending FlightAware ADS-B (KSNC)
11:49AM 40.7785 -73.3180 40° Northeast 446 513 23,000 -240 Descending FlightAware ADS-B (KSNC)
11:49AM 40.8579 -73.2280 42° Northeast 440 506 23,000 -540 Level FlightAware ADS-B (KSNC)
11:50AM 40.9186 -73.1566 42° Northeast 448 516 22,200 -1,380 Descending FlightAware ADS-B (KSNC)
11:51AM 40.9666 -73.1004 42° Northeast 451 519 21,400 -1,620 Descending FlightAware ADS-B (KSNC)
11:51AM 41.0197 -73.0384 42° Northeast 453 521 20,500 -1,500 Descending FlightAware ADS-B (KSNC)
11:52AM 41.0644 -72.9860 42° Northeast 453 521 19,800 -1,620 Descending FlightAware ADS-B (KSNC)
11:52AM 41.1310 -72.9078 42° Northeast 453 521 18,600 -1,740 Descending FlightAware ADS-B (KSNC)
11:53AM 41.1765 -72.8543 42° Northeast 448 516 17,800 -1,620 Descending FlightAware ADS-B (KSNC)
11:54AM 41.2426 -72.7765 42° Northeast 439 505 16,700 -1,620 Descending FlightAware ADS-B (KSNC)
11:54AM 41.3019 -72.7074 39° Northeast 428 493 15,700 -1,500 Descending FlightAware ADS-B (KSNC)
11:55AM 41.3410 -72.6798 21° North 413 475 15,200 -660 Descending FlightAware ADS-B (KSNC)
11:55AM 41.4039 -72.6536 18° North 395 455 15,100 -120 Descending FlightAware ADS-B (KSNC)
11:56AM 41.4710 -72.6233 19° North 398 458 15,100  Level FlightAware ADS-B (KSNC)
11:57AM 41.5416 -72.5917 18° North 398 458 15,100 -120 Level FlightAware ADS-B (KSNC)
11:57AM 41.6058 -72.5631 18° North 399 459 15,000 -900 Descending FlightAware ADS-B (KSNC)
11:58AM 41.6637 -72.5363 35° Northeast 404 465 14,000 -1,560 Descending FlightAware ADS-B (KSNC)
11:58AM 41.6938 -72.5035 48° Northeast 403 464 13,500 -1,740 Descending FlightAware ADS-B (KSNC)
11:59AM 41.7428 -72.4374 42° Northeast 401 461 12,400 -1,680 Descending FlightAware ADS-B (KSNC)
12:00PM 41.7815 -72.3929 40° Northeast 400 460 11,200 -900 Descending FlightAware ADS-B (KSNC)
12:02PM 42.0296 -72.1131 40° Northeast 327 376 9,300 -780 Descending FlightAware ADS-B (KSNC)
12:08PM 42.3749 -71.7016 48° Northeast 311 358 5,100 -780 Descending FlightAware ADS-B (KASH)
12:08PM 42.4055 -71.6563 49° Northeast 299 344 4,800 -660 Descending FlightAware ADS-B (KASH)
12:08PM 42.4205 -71.6339 48° Northeast 297 342 4,600 -840 Descending FlightAware ADS-B (KASH)
12:09PM 42.4448 -71.5972 49° Northeast 293 337 4,200 -840 Descending FlightAware ADS-B (KASH)
12:09PM 42.4624 -71.5709 49° Northeast 299 344 4,000 -720 Descending FlightAware ADS-B (KASH)
12:09PM 42.4769 -71.5493 49° Northeast 302 348 3,800 -840 Descending FlightAware ADS-B (KASH)
12:10PM 42.5027 -71.5109 49° Northeast 268 308 3,400 -900 Descending FlightAware ADS-B (KASH)
12:10PM 42.5131 -71.4956 47° Northeast 273 314 3,200 -600 Descending FlightAware ADS-B (KBOS)
12:10PM 42.5253 -71.4713 68° East 268 308 3,100 -540 Descending FlightAware ADS-B (KASH)
12:11PM 42.5309 -71.4439 82° East 257 296 2,900 -720 Descending FlightAware ADS-B (KASH)
12:11PM 42.5334 -71.4144 86° East 240 276 2,700 -720 Descending FlightAware ADS-B (KASH)
12:11PM 42.5348 -71.3971 86° East 236 272 2,400 -780 Descending FlightAware ADS-B (KBOS)
12:12PM 42.5381 -71.3549 86° East 219 252 2,200 -480 Descending FlightAware ADS-B (KASH)
12:12PM 42.5404 -71.3264 85° East 197 227 2,000 -600 Descending FlightAware ADS-B (KBOS)
12:13PM 42.5384 -71.2907 98° East 179 206 1,700 -900 Descending FlightAware ADS-B (KBOS)
12:13PM 42.5305 -71.2712 142° Southeast 152 175 1,400 -660 Descending FlightAware ADS-B (KBOS)
12:13PM 42.5206 -71.2641 156° South 125 144 1,300 -600 Descending FlightAware ADS-B (KBOS)
12:14PM 42.4917 -71.2683 156° South 110 127 600 -540 Descending Boston Center
12:15PM 42.4672 -71.2914 215° Southwest 109 125 300 -300 Descending Boston Center
12:17PM 42.4667 -71.2833 North  Level FlightAware Approximate